Time;durP1;ratioP1;P1;durP2;ratioP2;P2;SDS_P1;SDS_P2;PMS_P1;PMS_P2;Temp;Humidity;BMP_temperature;BMP_pressure;BME280_temperature;BME280_humidity;BME280_pressure;Samples;Min_cycle;Max_cycle;Signal;HPM_P1;HPM_P2
2022/07/24 00:00:30;;;;;;;;;;;27.40;44.60;;;;;;8364577;28;19917;-46
2022/07/24 00:04:30;;;;;;;;;;;27.40;44.40;;;;;;8365152;28;19943;-44
2022/07/24 00:08:31;;;;;;;;;;;27.30;44.40;;;;;;8359718;28;19929;-46
2022/07/24 00:12:32;;;;;;;;;;;27.20;45.10;;;;;;8355170;28;19924;-46
2022/07/24 00:16:32;;;;;;;;;;;27.20;45.10;;;;;;8346492;28;19921;-46
2022/07/24 00:20:32;;;;;;;;;;;27.10;45.00;;;;;;8339979;28;19932;-45
2022/07/24 00:24:33;;;;;;;;;;;27.10;44.40;;;;;;8387041;28;19917;-44
2022/07/24 00:28:33;;;;;;;;;;;27.00;44.10;;;;;;8352723;28;20063;-46
2022/07/24 00:32:34;;;;;;;;;;;27.00;44.10;;;;;;8347654;28;19917;-45
2022/07/24 00:36:34;;;;;;;;;;;27.00;44.10;;;;;;8340285;28;19917;-46
2022/07/24 00:40:35;;;;;;;;;;;27.00;44.00;;;;;;8338790;28;19917;-46
2022/07/24 00:44:36;;;;;;;;;;;26.90;44.10;;;;;;8347901;28;19928;-45
2022/07/24 00:48:36;;;;;;;;;;;26.90;45.00;;;;;;8347491;28;19923;-45
2022/07/24 00:52:37;;;;;;;;;;;27.00;44.50;;;;;;8325658;28;19925;-42
2022/07/24 00:56:38;;;;;;;;;;;27.20;44.70;;;;;;8355083;28;20468;-45
2022/07/24 01:00:39;;;;;;;;;;;27.30;44.40;;;;;;8339081;28;19921;-45
2022/07/24 01:04:39;;;;;;;;;;;27.40;43.70;;;;;;8326950;28;20455;-44
2022/07/24 01:08:40;;;;;;;;;;;27.50;43.10;;;;;;8348763;28;20400;-46
2022/07/24 01:12:41;;;;;;;;;;;27.50;42.90;;;;;;8346054;28;19964;-46
2022/07/24 01:16:41;;;;;;;;;;;27.60;42.20;;;;;;8344938;28;20324;-44
2022/07/24 01:20:45;;;;;;;;;;;27.60;43.10;;;;;;8350321;28;19917;-45
2022/07/24 01:24:45;;;;;;;;;;;27.70;43.60;;;;;;8352211;28;19935;-45
2022/07/24 01:28:46;;;;;;;;;;;27.70;42.90;;;;;;8341366;28;19917;-44
2022/07/24 01:32:47;;;;;;;;;;;27.60;43.30;;;;;;8342041;28;19917;-43
2022/07/24 01:36:47;;;;;;;;;;;27.30;43.90;;;;;;8357721;28;19935;-44
2022/07/24 01:40:48;;;;;;;;;;;27.20;43.80;;;;;;8373336;28;19924;-44
2022/07/24 01:44:48;;;;;;;;;;;27.00;43.80;;;;;;8364849;28;20292;-46
2022/07/24 01:48:49;;;;;;;;;;;26.90;43.90;;;;;;8376035;28;20270;-45
2022/07/24 01:52:49;;;;;;;;;;;27.00;43.80;;;;;;8340417;28;20325;-45
2022/07/24 01:56:50;;;;;;;;;;;26.90;44.40;;;;;;8363408;28;20374;-45
2022/07/24 02:00:50;;;;;;;;;;;26.80;44.60;;;;;;8383883;28;19920;-44
2022/07/24 02:04:51;;;;;;;;;;;26.80;44.80;;;;;;8380064;28;19916;-44
2022/07/24 02:08:52;;;;;;;;;;;26.70;45.10;;;;;;8364564;28;19913;-45
2022/07/24 02:12:52;;;;;;;;;;;26.60;45.30;;;;;;8362369;28;19924;-46
2022/07/24 02:16:53;;;;;;;;;;;26.50;45.70;;;;;;8349323;28;20370;-44
2022/07/24 02:20:53;;;;;;;;;;;26.40;45.20;;;;;;8360735;28;19963;-43
2022/07/24 02:24:53;;;;;;;;;;;26.40;45.40;;;;;;8350696;28;19917;-44
2022/07/24 02:28:54;;;;;;;;;;;26.30;45.40;;;;;;8360750;28;19924;-45
2022/07/24 02:32:54;;;;;;;;;;;26.30;45.30;;;;;;8348052;28;20267;-43
2022/07/24 02:36:55;;;;;;;;;;;26.30;45.10;;;;;;8354408;28;19925;-45
2022/07/24 02:40:55;;;;;;;;;;;26.20;44.90;;;;;;8357063;28;19974;-44
2022/07/24 02:44:56;;;;;;;;;;;26.10;45.20;;;;;;8353152;28;19967;-44
2022/07/24 02:48:56;;;;;;;;;;;26.10;45.50;;;;;;8348181;28;20011;-44
2022/07/24 02:52:56;;;;;;;;;;;26.10;45.60;;;;;;8354312;28;19940;-43
2022/07/24 02:56:57;;;;;;;;;;;26.00;45.70;;;;;;8351324;28;20289;-43
2022/07/24 03:00:57;;;;;;;;;;;26.00;45.70;;;;;;8342001;28;20488;-44
2022/07/24 03:04:58;;;;;;;;;;;25.90;45.40;;;;;;8347699;28;20305;-44
2022/07/24 03:08:58;;;;;;;;;;;25.90;45.40;;;;;;8354324;28;20018;-44
2022/07/24 03:12:59;;;;;;;;;;;25.80;45.40;;;;;;8346688;28;19917;-45
2022/07/24 03:16:59;;;;;;;;;;;25.80;45.60;;;;;;8341379;28;19974;-44
2022/07/24 03:21:00;;;;;;;;;;;25.80;46.20;;;;;;8359349;28;20338;-45
2022/07/24 03:25:01;;;;;;;;;;;25.70;46.00;;;;;;8349189;28;19917;-45
2022/07/24 03:29:01;;;;;;;;;;;25.70;46.40;;;;;;8351188;28;19921;-46
2022/07/24 03:33:02;;;;;;;;;;;25.60;46.40;;;;;;8351497;28;19931;-45
2022/07/24 03:37:02;;;;;;;;;;;25.60;46.50;;;;;;8360904;28;19925;-45
2022/07/24 03:41:03;;;;;;;;;;;25.60;46.70;;;;;;8343171;28;20293;-45
2022/07/24 03:45:04;;;;;;;;;;;25.60;46.60;;;;;;8353862;28;19927;-44
2022/07/24 03:49:04;;;;;;;;;;;25.50;46.60;;;;;;8351107;28;19917;-44
2022/07/24 03:53:04;;;;;;;;;;;25.40;46.50;;;;;;8347305;28;19925;-45
2022/07/24 03:57:06;;;;;;;;;;;25.40;46.30;;;;;;8359454;28;19933;-45
2022/07/24 04:01:06;;;;;;;;;;;25.40;46.40;;;;;;8353409;28;19960;-45
2022/07/24 04:05:08;;;;;;;;;;;25.30;46.50;;;;;;8342956;28;19917;-45
2022/07/24 04:09:09;;;;;;;;;;;25.30;46.60;;;;;;8351983;28;19971;-43
2022/07/24 04:13:09;;;;;;;;;;;25.30;46.70;;;;;;8353703;28;20007;-44
2022/07/24 04:17:10;;;;;;;;;;;25.20;46.60;;;;;;8344126;28;19929;-45
2022/07/24 04:21:10;;;;;;;;;;;25.20;46.70;;;;;;8350496;28;19917;-44
2022/07/24 04:25:11;;;;;;;;;;;25.20;46.70;;;;;;8353888;28;19921;-44
2022/07/24 04:29:11;;;;;;;;;;;25.10;46.90;;;;;;8355687;28;19952;-45
2022/07/24 04:33:12;;;;;;;;;;;25.10;47.00;;;;;;8349830;28;19917;-44
2022/07/24 04:37:12;;;;;;;;;;;25.00;47.20;;;;;;8349062;28;20016;-45
2022/07/24 04:41:13;;;;;;;;;;;25.00;47.20;;;;;;8337400;28;19918;-45
2022/07/24 04:45:14;;;;;;;;;;;24.90;47.30;;;;;;8353088;28;19916;-44
2022/07/24 04:49:14;;;;;;;;;;;25.00;47.30;;;;;;8349951;28;20014;-44
2022/07/24 04:53:15;;;;;;;;;;;24.90;47.40;;;;;;8359159;28;19917;-44
2022/07/24 04:57:15;;;;;;;;;;;24.90;47.60;;;;;;8353227;28;19970;-44
2022/07/24 05:01:15;;;;;;;;;;;24.90;47.70;;;;;;8344604;28;20292;-45
2022/07/24 05:05:16;;;;;;;;;;;24.80;48.20;;;;;;8356807;28;20023;-45
2022/07/24 05:09:16;;;;;;;;;;;24.80;48.20;;;;;;8349151;28;19918;-44
2022/07/24 05:13:17;;;;;;;;;;;24.80;48.10;;;;;;8358433;28;19999;-44
2022/07/24 05:17:17;;;;;;;;;;;24.80;48.30;;;;;;8347207;28;19932;-43
2022/07/24 05:21:18;;;;;;;;;;;24.80;48.40;;;;;;8345143;28;20341;-44
2022/07/24 05:25:18;;;;;;;;;;;24.70;48.60;;;;;;8357527;28;20301;-44
2022/07/24 05:29:19;;;;;;;;;;;24.80;48.50;;;;;;8335722;28;19923;-44
2022/07/24 05:33:19;;;;;;;;;;;24.80;48.30;;;;;;8354892;28;19999;-44
2022/07/24 05:37:20;;;;;;;;;;;24.80;48.20;;;;;;8355447;28;19925;-45
2022/07/24 05:41:20;;;;;;;;;;;24.80;48.80;;;;;;8355857;28;19955;-45
2022/07/24 05:45:21;;;;;;;;;;;24.80;48.20;;;;;;8356312;28;19917;-45
2022/07/24 05:49:21;;;;;;;;;;;24.80;48.50;;;;;;8354364;28;19916;-47
2022/07/24 05:53:22;;;;;;;;;;;24.80;48.70;;;;;;8356479;28;19963;-45
2022/07/24 05:57:23;;;;;;;;;;;24.80;48.90;;;;;;8350354;28;19932;-45
2022/07/24 06:01:23;;;;;;;;;;;24.80;48.80;;;;;;8355098;28;19920;-45
2022/07/24 06:05:23;;;;;;;;;;;24.80;48.70;;;;;;8341685;28;19917;-45
2022/07/24 06:09:24;;;;;;;;;;;24.80;49.00;;;;;;8359614;28;19917;-44
2022/07/24 06:13:24;;;;;;;;;;;24.80;49.20;;;;;;8362150;28;20411;-44
2022/07/24 06:17:25;;;;;;;;;;;24.80;49.10;;;;;;8351936;28;19925;-44
2022/07/24 06:21:26;;;;;;;;;;;24.80;48.90;;;;;;8352866;28;19923;-44
2022/07/24 06:25:26;;;;;;;;;;;24.80;49.10;;;;;;8362969;28;19976;-45
2022/07/24 06:29:26;;;;;;;;;;;24.80;49.00;;;;;;8354826;28;20341;-44
2022/07/24 06:33:27;;;;;;;;;;;24.80;48.90;;;;;;8347470;28;19917;-45
2022/07/24 06:37:27;;;;;;;;;;;24.80;49.00;;;;;;8351391;28;20341;-45
2022/07/24 06:41:28;;;;;;;;;;;24.80;48.90;;;;;;8362022;28;20333;-45
2022/07/24 06:45:31;;;;;;;;;;;24.90;48.70;;;;;;8355828;28;20008;-45
2022/07/24 06:49:31;;;;;;;;;;;24.90;48.60;;;;;;8356522;28;20381;-46
2022/07/24 06:53:32;;;;;;;;;;;25.00;48.60;;;;;;8345860;28;19917;-44
2022/07/24 06:57:32;;;;;;;;;;;25.00;48.40;;;;;;8358002;28;19926;-45
2022/07/24 07:01:33;;;;;;;;;;;25.00;48.60;;;;;;8346537;28;19924;-44
2022/07/24 07:05:33;;;;;;;;;;;25.00;48.50;;;;;;8345003;28;19921;-46
2022/07/24 07:09:35;;;;;;;;;;;25.00;48.20;;;;;;8345813;28;19924;-45
2022/07/24 07:13:36;;;;;;;;;;;25.10;48.10;;;;;;8359026;28;19921;-45
2022/07/24 07:17:37;;;;;;;;;;;25.10;48.20;;;;;;8344122;28;19976;-45
2022/07/24 07:21:37;;;;;;;;;;;25.10;48.30;;;;;;8347041;28;20000;-44
2022/07/24 07:25:38;;;;;;;;;;;25.20;48.20;;;;;;8361045;28;19916;-44
2022/07/24 07:29:38;;;;;;;;;;;25.30;47.50;;;;;;8353409;28;19916;-44
2022/07/24 07:33:39;;;;;;;;;;;25.30;47.30;;;;;;8345902;28;19939;-44
2022/07/24 07:37:39;;;;;;;;;;;25.30;47.00;;;;;;8355710;28;19928;-44
2022/07/24 07:41:40;;;;;;;;;;;25.40;47.00;;;;;;8347871;28;19917;-44
2022/07/24 07:45:40;;;;;;;;;;;25.40;46.90;;;;;;8345457;28;19971;-44
2022/07/24 07:49:40;;;;;;;;;;;25.40;46.90;;;;;;8356600;28;19924;-44
2022/07/24 07:53:41;;;;;;;;;;;25.50;46.90;;;;;;8342181;28;19917;-44
2022/07/24 07:57:43;;;;;;;;;;;25.60;47.00;;;;;;8350210;28;19925;-44
2022/07/24 08:01:43;;;;;;;;;;;25.60;46.90;;;;;;8341382;28;19920;-44
2022/07/24 08:05:44;;;;;;;;;;;25.60;46.90;;;;;;8351374;28;19970;-45
2022/07/24 08:09:44;;;;;;;;;;;25.60;46.80;;;;;;8350734;28;20313;-43
2022/07/24 08:13:45;;;;;;;;;;;25.70;46.60;;;;;;8348120;28;20451;-44
2022/07/24 08:17:50;;;;;;;;;;;25.80;46.60;;;;;;8349267;28;20385;-44
2022/07/24 08:21:50;;;;;;;;;;;25.80;46.50;;;;;;8351661;28;19962;-45
2022/07/24 08:25:51;;;;;;;;;;;25.90;45.80;;;;;;8351987;28;19920;-46
2022/07/24 08:29:51;;;;;;;;;;;25.90;46.10;;;;;;8352098;28;19975;-44
2022/07/24 08:33:52;;;;;;;;;;;26.00;45.30;;;;;;8362775;28;19924;-44
2022/07/24 08:37:52;;;;;;;;;;;26.10;45.60;;;;;;8349446;28;19976;-44
2022/07/24 08:41:53;;;;;;;;;;;26.10;45.30;;;;;;8343068;28;20328;-42
2022/07/24 08:45:54;;;;;;;;;;;26.10;45.30;;;;;;8356253;28;19917;-43
2022/07/24 08:49:57;;;;;;;;;;;26.20;45.20;;;;;;8390350;28;19948;-43
2022/07/24 08:53:58;;;;;;;;;;;26.20;44.70;;;;;;8394488;28;20297;-42
2022/07/24 08:57:59;;;;;;;;;;;26.30;44.70;;;;;;8357790;28;19932;-43
2022/07/24 09:02:00;;;;;;;;;;;26.40;45.10;;;;;;8363258;28;19987;-45
2022/07/24 09:06:01;;;;;;;;;;;26.40;45.30;;;;;;8345669;28;19925;-44
2022/07/24 09:10:03;;;;;;;;;;;26.40;45.00;;;;;;8344944;28;19917;-44
2022/07/24 09:18:26;;;;;;;;;;;26.50;44.70;;;;;;8373990;28;19932;-42
2022/07/24 09:22:37;;;;;;;;;;;26.60;44.50;;;;;;8362996;28;19931;-43
2022/07/24 09:26:52;;;;;;;;;;;26.60;44.40;;;;;;8368198;28;19917;-43
2022/07/24 09:30:53;;;;;;;;;;;26.60;44.30;;;;;;8356239;28;19921;-43
2022/07/24 09:34:54;;;;;;;;;;;26.60;44.20;;;;;;8362922;28;19917;-48
2022/07/24 09:38:56;;;;;;;;;;;26.70;45.10;;;;;;8361040;28;19978;-45
2022/07/24 09:43:15;;;;;;;;;;;26.80;44.50;;;;;;8363040;28;19944;-44
2022/07/24 09:47:16;;;;;;;;;;;26.80;44.20;;;;;;8362483;28;19921;-45
2022/07/24 09:51:16;;;;;;;;;;;26.80;44.10;;;;;;8362699;28;19917;-46
2022/07/24 09:55:21;;;;;;;;;;;26.80;44.00;;;;;;8363040;28;19917;-44
2022/07/24 09:59:25;;;;;;;;;;;26.80;44.00;;;;;;8362300;28;20509;-44
2022/07/24 10:03:29;;;;;;;;;;;26.80;43.90;;;;;;8356992;28;19956;-45
2022/07/24 10:07:30;;;;;;;;;;;26.90;43.90;;;;;;8342207;28;19913;-45
2022/07/24 10:11:31;;;;;;;;;;;26.90;43.90;;;;;;8362037;28;19924;-44
2022/07/24 10:15:33;;;;;;;;;;;26.90;43.80;;;;;;8362859;28;20007;-44
2022/07/24 10:19:41;;;;;;;;;;;26.90;43.80;;;;;;8362373;28;19925;-44
2022/07/24 10:23:50;;;;;;;;;;;27.00;43.80;;;;;;8362169;28;19917;-44
2022/07/24 10:27:51;;;;;;;;;;;27.00;43.70;;;;;;8362278;28;19917;-44
2022/07/24 10:31:54;;;;;;;;;;;27.00;43.60;;;;;;8361891;28;19921;-44
2022/07/24 10:35:55;;;;;;;;;;;27.00;43.50;;;;;;8362326;28;19912;-44
2022/07/24 10:40:14;;;;;;;;;;;27.10;43.50;;;;;;8366616;28;19924;-43
2022/07/24 10:44:17;;;;;;;;;;;27.10;43.40;;;;;;8367379;28;19917;-44
2022/07/24 10:48:20;;;;;;;;;;;27.10;43.40;;;;;;8368113;28;19920;-43
2022/07/24 10:52:28;;;;;;;;;;;27.20;43.40;;;;;;8367699;28;19913;-43
2022/07/24 10:56:32;;;;;;;;;;;27.20;43.30;;;;;;8366754;28;19917;-44
2022/07/24 11:00:34;;;;;;;;;;;27.20;43.30;;;;;;8367579;28;20337;-45
2022/07/24 11:04:34;;;;;;;;;;;27.20;43.20;;;;;;8367426;28;19924;-45
2022/07/24 11:08:55;;;;;;;;;;;27.30;43.20;;;;;;8348840;28;20003;-45
2022/07/24 11:12:56;;;;;;;;;;;27.30;43.20;;;;;;8366372;28;20380;-45
2022/07/24 11:16:56;;;;;;;;;;;27.30;43.10;;;;;;8366450;28;19925;-45
2022/07/24 11:21:00;;;;;;;;;;;27.30;43.10;;;;;;8367250;28;19984;-44
2022/07/24 11:25:26;;;;;;;;;;;27.30;43.00;;;;;;8366761;28;19917;-44
2022/07/24 11:29:29;;;;;;;;;;;27.40;43.00;;;;;;8362800;28;19921;-44
2022/07/24 11:33:30;;;;;;;;;;;27.40;43.00;;;;;;8366283;28;20003;-44
2022/07/24 11:37:30;;;;;;;;;;;27.40;42.90;;;;;;8366112;28;19944;-44
2022/07/24 11:41:50;;;;;;;;;;;27.50;42.90;;;;;;8365882;28;19921;-48
2022/07/24 11:45:51;;;;;;;;;;;27.50;42.80;;;;;;8366475;28;20403;-45
2022/07/24 11:49:54;;;;;;;;;;;27.50;42.80;;;;;;8365555;28;19933;-45
2022/07/24 11:53:57;;;;;;;;;;;27.50;42.70;;;;;;8384805;28;19964;-46
2022/07/24 11:57:57;;;;;;;;;;;27.60;42.80;;;;;;8380792;28;19931;-45
2022/07/24 12:02:05;;;;;;;;;;;27.60;42.70;;;;;;8398149;28;19917;-44
2022/07/24 12:06:11;;;;;;;;;;;27.60;42.60;;;;;;8398789;28;19920;-45
2022/07/24 12:10:17;;;;;;;;;;;27.70;42.60;;;;;;8398534;28;19916;-44
2022/07/24 12:14:20;;;;;;;;;;;27.70;42.60;;;;;;8397862;28;19922;-44
2022/07/24 12:18:20;;;;;;;;;;;27.70;42.60;;;;;;8398321;28;20427;-45
2022/07/24 12:22:21;;;;;;;;;;;27.70;42.50;;;;;;8397883;28;19916;-45
2022/07/24 12:26:22;;;;;;;;;;;27.80;42.50;;;;;;8397418;28;19913;-45
2022/07/24 12:30:29;;;;;;;;;;;27.80;42.50;;;;;;8397336;28;19923;-45
2022/07/24 12:34:43;;;;;;;;;;;27.80;42.40;;;;;;8397495;28;19919;-45
2022/07/24 12:38:49;;;;;;;;;;;27.80;42.30;;;;;;8396947;28;19932;-45
2022/07/24 12:43:10;;;;;;;;;;;27.90;42.30;;;;;;8397353;28;19912;-46
2022/07/24 12:47:11;;;;;;;;;;;27.90;42.30;;;;;;8396258;28;19920;-45
2022/07/24 12:51:12;;;;;;;;;;;27.90;42.30;;;;;;8397493;28;19962;-45
2022/07/24 12:55:20;;;;;;;;;;;27.90;42.20;;;;;;8397029;28;19923;-45
2022/07/24 12:59:30;;;;;;;;;;;28.00;42.20;;;;;;8396313;28;19931;-45
2022/07/24 13:03:30;;;;;;;;;;;28.00;42.10;;;;;;8396678;28;20388;-46
2022/07/24 13:07:31;;;;;;;;;;;28.00;42.10;;;;;;8389447;28;19928;-46
2022/07/24 13:11:31;;;;;;;;;;;28.00;42.00;;;;;;8363033;28;19924;-45
2022/07/24 13:15:32;;;;;;;;;;;28.10;42.10;;;;;;8363386;28;19962;-45
2022/07/24 13:19:33;;;;;;;;;;;28.10;42.10;;;;;;8363695;28;19928;-45
2022/07/24 13:23:33;;;;;;;;;;;28.10;42.10;;;;;;8362589;28;20384;-45
2022/07/24 13:27:34;;;;;;;;;;;28.10;42.10;;;;;;8363054;28;20393;-46
2022/07/24 13:31:34;;;;;;;;;;;28.10;42.10;;;;;;8363319;28;19917;-45
2022/07/24 13:35:35;;;;;;;;;;;28.10;42.00;;;;;;8362607;28;19927;-45
2022/07/24 13:39:39;;;;;;;;;;;28.20;42.10;;;;;;8362774;28;20298;-45
2022/07/24 13:43:40;;;;;;;;;;;28.20;42.10;;;;;;8362352;28;19912;-45
2022/07/24 13:47:40;;;;;;;;;;;28.20;42.10;;;;;;8363191;28;19919;-45
2022/07/24 13:51:41;;;;;;;;;;;28.20;42.00;;;;;;8363040;28;19917;-46
2022/07/24 13:55:41;;;;;;;;;;;28.20;42.00;;;;;;8362305;28;19917;-46
2022/07/24 13:59:42;;;;;;;;;;;28.20;42.00;;;;;;8362978;28;19931;-44
2022/07/24 14:03:43;;;;;;;;;;;28.30;42.00;;;;;;8362512;28;20380;-44
2022/07/24 14:07:44;;;;;;;;;;;28.30;41.90;;;;;;8344180;28;19917;-46
2022/07/24 14:11:44;;;;;;;;;;;28.30;41.90;;;;;;8362943;28;19917;-45
2022/07/24 14:15:45;;;;;;;;;;;28.30;41.90;;;;;;8368723;28;19921;-46
2022/07/24 14:19:47;;;;;;;;;;;28.30;41.80;;;;;;8367500;28;21516;-45
2022/07/24 14:23:47;;;;;;;;;;;28.40;41.90;;;;;;8368539;28;19923;-46
2022/07/24 14:27:48;;;;;;;;;;;28.40;41.90;;;;;;8368535;28;19921;-45
2022/07/24 14:31:48;;;;;;;;;;;28.40;41.80;;;;;;8368204;28;19917;-46
2022/07/24 14:35:49;;;;;;;;;;;28.40;41.80;;;;;;8368482;28;20027;-44
2022/07/24 14:39:49;;;;;;;;;;;28.40;41.80;;;;;;8368271;28;19925;-45
2022/07/24 14:43:50;;;;;;;;;;;28.40;41.70;;;;;;8367574;28;20428;-46
2022/07/24 14:47:51;;;;;;;;;;;28.50;41.70;;;;;;8368210;28;19917;-45
2022/07/24 14:51:51;;;;;;;;;;;28.50;42.30;;;;;;8368095;28;19956;-45
2022/07/24 14:55:52;;;;;;;;;;;28.50;41.70;;;;;;8367260;28;19917;-46
2022/07/24 14:59:52;;;;;;;;;;;28.50;41.70;;;;;;8367522;28;19972;-45
2022/07/24 15:03:53;;;;;;;;;;;28.50;41.60;;;;;;8367365;28;19917;-45
2022/07/24 15:07:54;;;;;;;;;;;28.50;41.60;;;;;;8367099;28;19995;-45
2022/07/24 15:11:54;;;;;;;;;;;28.50;41.60;;;;;;8367099;28;19975;-47
2022/07/24 15:15:55;;;;;;;;;;;28.60;41.60;;;;;;8367176;28;20055;-45
2022/07/24 15:19:56;;;;;;;;;;;28.60;41.60;;;;;;8366514;28;19921;-46
2022/07/24 15:23:56;;;;;;;;;;;28.60;41.60;;;;;;8366830;28;19991;-45
2022/07/24 15:27:57;;;;;;;;;;;28.60;41.50;;;;;;8366941;28;20331;-45
2022/07/24 15:31:57;;;;;;;;;;;28.60;41.50;;;;;;8366115;28;19917;-44
2022/07/24 15:35:58;;;;;;;;;;;28.60;41.50;;;;;;8366428;28;19956;-45
2022/07/24 15:39:58;;;;;;;;;;;28.60;41.40;;;;;;8366404;28;20297;-44
2022/07/24 15:43:58;;;;;;;;;;;28.60;41.40;;;;;;8365807;28;19924;-43
2022/07/24 15:47:59;;;;;;;;;;;28.60;41.50;;;;;;8366268;28;19916;-44
2022/07/24 15:51:59;;;;;;;;;;;28.70;41.50;;;;;;8365978;28;20003;-44
2022/07/24 15:56:00;;;;;;;;;;;28.60;41.40;;;;;;8365442;28;19917;-45
2022/07/24 16:00:00;;;;;;;;;;;28.60;41.40;;;;;;8365635;28;19924;-45
2022/07/24 16:04:01;;;;;;;;;;;28.70;41.40;;;;;;8360456;28;19913;-44
2022/07/24 16:08:01;;;;;;;;;;;28.70;41.40;;;;;;8365124;28;20365;-45
2022/07/24 16:12:02;;;;;;;;;;;28.70;41.40;;;;;;8365330;28;19917;-43
2022/07/24 16:16:02;;;;;;;;;;;28.70;41.40;;;;;;8365415;28;20300;-45
2022/07/24 16:20:04;;;;;;;;;;;28.70;41.40;;;;;;8364544;28;19932;-45
2022/07/24 16:24:04;;;;;;;;;;;28.70;41.40;;;;;;8364804;28;19912;-45
2022/07/24 16:28:05;;;;;;;;;;;28.70;41.40;;;;;;8364918;28;19917;-45
2022/07/24 16:32:06;;;;;;;;;;;28.70;41.30;;;;;;8364205;28;19917;-46
2022/07/24 16:36:07;;;;;;;;;;;28.70;41.30;;;;;;8363833;28;20003;-45
2022/07/24 16:40:08;;;;;;;;;;;28.70;41.30;;;;;;8364201;28;19928;-45
2022/07/24 16:44:08;;;;;;;;;;;28.70;41.30;;;;;;8363850;28;20281;-44
2022/07/24 16:48:08;;;;;;;;;;;28.70;41.30;;;;;;8364462;28;19913;-44
2022/07/24 16:52:11;;;;;;;;;;;28.70;41.30;;;;;;8364220;28;19924;-45
2022/07/24 16:56:12;;;;;;;;;;;28.70;41.30;;;;;;8363419;28;19917;-46
2022/07/24 17:00:13;;;;;;;;;;;28.80;41.30;;;;;;8363913;28;19931;-45
2022/07/24 17:04:13;;;;;;;;;;;28.70;41.20;;;;;;8363922;28;19917;-44
2022/07/24 17:08:14;;;;;;;;;;;28.70;41.30;;;;;;8345707;28;19913;-44
2022/07/24 17:12:14;;;;;;;;;;;28.80;41.30;;;;;;8363801;28;20023;-44
2022/07/24 17:16:15;;;;;;;;;;;28.80;41.30;;;;;;8363449;28;20000;-44
2022/07/24 17:20:16;;;;;;;;;;;28.70;41.20;;;;;;8362935;28;19925;-44
2022/07/24 17:24:16;;;;;;;;;;;28.80;41.30;;;;;;8363460;28;20358;-44
2022/07/24 17:28:16;;;;;;;;;;;28.80;41.20;;;;;;8363520;28;19923;-44
2022/07/24 17:32:17;;;;;;;;;;;28.80;41.30;;;;;;8362820;28;19921;-43
2022/07/24 17:36:18;;;;;;;;;;;28.80;41.20;;;;;;8362994;28;20021;-43
2022/07/24 17:40:18;;;;;;;;;;;28.80;41.20;;;;;;8362907;28;20352;-44
2022/07/24 17:44:19;;;;;;;;;;;28.80;41.20;;;;;;8362494;28;19912;-44
2022/07/24 17:48:19;;;;;;;;;;;28.80;41.20;;;;;;8367685;28;19913;-44
2022/07/24 17:52:20;;;;;;;;;;;28.80;41.20;;;;;;8369707;28;19921;-43
2022/07/24 17:56:20;;;;;;;;;;;28.80;41.20;;;;;;8369044;28;19924;-45
2022/07/24 18:00:21;;;;;;;;;;;28.80;41.20;;;;;;8369428;28;20012;-44
2022/07/24 18:04:21;;;;;;;;;;;28.80;41.80;;;;;;8369484;28;19944;-44
2022/07/24 18:08:21;;;;;;;;;;;28.80;41.20;;;;;;8369039;28;19917;-44
2022/07/24 18:12:22;;;;;;;;;;;28.80;41.20;;;;;;8369052;28;19917;-44
2022/07/24 18:16:22;;;;;;;;;;;28.80;41.20;;;;;;8368854;28;20433;-44
2022/07/24 18:20:24;;;;;;;;;;;28.80;41.10;;;;;;8368154;28;19947;-44
2022/07/24 18:24:24;;;;;;;;;;;28.80;41.10;;;;;;8368808;28;19920;-45
2022/07/24 18:28:25;;;;;;;;;;;28.80;41.10;;;;;;8368856;28;19919;-45
2022/07/24 18:32:25;;;;;;;;;;;28.80;41.10;;;;;;8368073;28;20366;-44
2022/07/24 18:36:26;;;;;;;;;;;28.80;41.10;;;;;;8368299;28;19923;-44
2022/07/24 18:40:26;;;;;;;;;;;28.80;41.00;;;;;;8368302;28;19925;-45
2022/07/24 18:44:27;;;;;;;;;;;28.80;41.00;;;;;;8367640;28;19920;-44
2022/07/24 18:48:27;;;;;;;;;;;28.80;41.10;;;;;;8368064;28;19917;-44
2022/07/24 18:52:28;;;;;;;;;;;28.80;41.10;;;;;;8367893;28;19916;-45
2022/07/24 18:56:28;;;;;;;;;;;28.80;41.10;;;;;;8349422;28;19921;-45
2022/07/24 19:00:29;;;;;;;;;;;28.80;41.10;;;;;;8366956;28;20239;-45
2022/07/24 19:04:29;;;;;;;;;;;28.80;41.10;;;;;;8367796;28;19913;-46
2022/07/24 19:08:30;;;;;;;;;;;28.80;41.10;;;;;;8365761;28;20278;-46
2022/07/24 19:12:30;;;;;;;;;;;28.80;41.00;;;;;;8367304;28;19996;-45
2022/07/24 19:16:30;;;;;;;;;;;28.80;40.90;;;;;;8366994;28;19991;-45
2022/07/24 19:20:31;;;;;;;;;;;28.80;40.70;;;;;;8366226;28;20348;-45
2022/07/24 19:24:31;;;;;;;;;;;28.80;40.70;;;;;;8349085;28;19942;-46
2022/07/24 19:28:32;;;;;;;;;;;28.80;40.70;;;;;;8367344;28;20357;-44
2022/07/24 19:32:34;;;;;;;;;;;28.80;40.80;;;;;;8365987;28;20374;-45
2022/07/24 19:36:34;;;;;;;;;;;28.80;40.90;;;;;;8381672;28;20270;-45
2022/07/24 19:40:35;;;;;;;;;;;28.70;40.80;;;;;;8399330;28;19972;-45
2022/07/24 19:44:35;;;;;;;;;;;28.80;40.90;;;;;;8399141;28;19919;-46
2022/07/24 19:48:36;;;;;;;;;;;28.80;40.90;;;;;;8399302;28;19943;-46
2022/07/24 19:52:36;;;;;;;;;;;28.70;40.90;;;;;;8399215;28;19923;-44
2022/07/24 19:56:37;;;;;;;;;;;28.70;40.90;;;;;;8398414;28;19951;-46
2022/07/24 20:00:37;;;;;;;;;;;28.70;40.90;;;;;;8398697;28;19924;-45
2022/07/24 20:04:38;;;;;;;;;;;28.70;41.00;;;;;;8398548;28;19912;-42
2022/07/24 20:08:38;;;;;;;;;;;28.70;41.00;;;;;;8398761;28;19961;-45
2022/07/24 20:12:39;;;;;;;;;;;28.70;41.00;;;;;;8397370;28;19916;-46
2022/07/24 20:16:39;;;;;;;;;;;28.70;41.00;;;;;;8379847;28;19973;-45
2022/07/24 20:20:40;;;;;;;;;;;28.70;41.00;;;;;;8397914;28;20312;-43
2022/07/24 20:24:40;;;;;;;;;;;28.70;41.00;;;;;;8398196;28;19987;-44
2022/07/24 20:28:41;;;;;;;;;;;28.70;41.00;;;;;;8397505;28;19959;-44
2022/07/24 20:32:41;;;;;;;;;;;28.70;41.00;;;;;;8397714;28;19917;-45
2022/07/24 20:36:42;;;;;;;;;;;28.70;41.00;;;;;;8385359;28;20090;-45
2022/07/24 20:40:42;;;;;;;;;;;28.70;41.10;;;;;;8364059;28;20419;-46
2022/07/24 20:44:43;;;;;;;;;;;28.70;41.00;;;;;;8365108;28;19958;-46
2022/07/24 20:48:43;;;;;;;;;;;28.70;41.00;;;;;;8364314;28;19917;-44
2022/07/24 20:52:44;;;;;;;;;;;28.70;41.00;;;;;;8345888;28;19917;-44
2022/07/24 20:56:44;;;;;;;;;;;28.70;41.00;;;;;;8364668;28;19921;-45
2022/07/24 21:00:44;;;;;;;;;;;28.70;41.00;;;;;;8364184;28;19925;-45
2022/07/24 21:04:45;;;;;;;;;;;28.70;41.00;;;;;;8363845;28;19948;-45
2022/07/24 21:08:45;;;;;;;;;;;28.70;41.00;;;;;;8363796;28;19917;-45
2022/07/24 21:12:46;;;;;;;;;;;28.60;41.00;;;;;;8363745;28;19917;-45
2022/07/24 21:16:46;;;;;;;;;;;28.60;41.00;;;;;;8363234;28;19921;-46
2022/07/24 21:20:50;;;;;;;;;;;28.70;41.00;;;;;;8363482;28;19956;-46
2022/07/24 21:24:51;;;;;;;;;;;28.70;41.00;;;;;;8363687;28;19913;-46
2022/07/24 21:28:51;;;;;;;;;;;28.60;41.00;;;;;;8362833;28;20358;-46
2022/07/24 21:32:51;;;;;;;;;;;28.60;41.00;;;;;;8363471;28;19921;-45
2022/07/24 21:36:52;;;;;;;;;;;28.60;41.00;;;;;;8363280;28;20327;-45
2022/07/24 21:40:53;;;;;;;;;;;28.60;40.90;;;;;;8362541;28;20019;-45
2022/07/24 21:44:53;;;;;;;;;;;28.60;40.90;;;;;;8363370;28;19935;-46
2022/07/24 21:48:54;;;;;;;;;;;28.60;41.00;;;;;;8363107;28;19992;-45
2022/07/24 21:52:54;;;;;;;;;;;28.60;40.90;;;;;;8362413;28;19917;-44
2022/07/24 21:56:55;;;;;;;;;;;28.60;40.90;;;;;;8363158;28;19968;-44
2022/07/24 22:00:55;;;;;;;;;;;28.60;40.90;;;;;;8361960;28;19927;-44
2022/07/24 22:04:56;;;;;;;;;;;28.60;41.00;;;;;;8361600;28;19913;-45
2022/07/24 22:08:56;;;;;;;;;;;28.60;40.90;;;;;;8389029;28;19923;-45
2022/07/24 22:12:57;;;;;;;;;;;28.60;40.90;;;;;;8395715;28;19916;-45
2022/07/24 22:16:57;;;;;;;;;;;28.60;40.90;;;;;;8395228;28;19956;-45
2022/07/24 22:20:58;;;;;;;;;;;28.60;41.00;;;;;;8395582;28;19924;-45
2022/07/24 22:24:58;;;;;;;;;;;28.60;41.00;;;;;;8395955;28;19921;-45
2022/07/24 22:28:58;;;;;;;;;;;28.50;40.90;;;;;;8395140;28;19939;-47
2022/07/24 22:32:59;;;;;;;;;;;28.50;40.90;;;;;;8395660;28;19923;-45
2022/07/24 22:37:01;;;;;;;;;;;28.50;40.90;;;;;;8401458;28;19951;-44
2022/07/24 22:41:02;;;;;;;;;;;28.50;40.90;;;;;;8400913;28;19921;-44
2022/07/24 22:45:03;;;;;;;;;;;28.50;40.90;;;;;;8401594;28;19988;-43
2022/07/24 22:49:04;;;;;;;;;;;28.50;40.90;;;;;;8401172;28;19916;-44
2022/07/24 22:53:04;;;;;;;;;;;28.50;41.00;;;;;;8400546;28;19916;-45
2022/07/24 22:57:05;;;;;;;;;;;28.40;40.90;;;;;;8400880;28;19917;-45
2022/07/24 23:01:06;;;;;;;;;;;28.50;41.00;;;;;;8401032;28;19955;-45
2022/07/24 23:05:06;;;;;;;;;;;28.50;41.00;;;;;;8400285;28;20417;-45
2022/07/24 23:09:07;;;;;;;;;;;28.50;41.00;;;;;;8400519;28;19917;-45
2022/07/24 23:13:07;;;;;;;;;;;28.40;40.90;;;;;;8400359;28;20331;-44
2022/07/24 23:17:08;;;;;;;;;;;28.40;41.00;;;;;;8399883;28;19920;-45
2022/07/24 23:21:08;;;;;;;;;;;28.40;41.00;;;;;;8400444;28;19921;-44
2022/07/24 23:25:09;;;;;;;;;;;28.40;41.00;;;;;;8400189;28;19917;-45